Time;durP1;ratioP1;P1;durP2;ratioP2;P2;SDS_P1;SDS_P2;PMS_P1;PMS_P2;Temp;Humidity;BMP_temperature;BMP_pressure;BME280_temperature;BME280_humidity;BME280_pressure;Samples;Min_cycle;Max_cycle;Signal;HPM_P1;HPM_P2
2021/03/06 00:00:12;;;;;;;9.07;5.95;;;1.40;93.60;;;;;;4996576;28;20196;-87
2021/03/06 00:02:38;;;;;;;7.43;5.63;;;1.50;93.30;;;;;;4991179;28;20668;-88
2021/03/06 00:05:08;;;;;;;6.45;5.57;;;1.50;93.10;;;;;;4984179;28;20684;-88
2021/03/06 00:07:34;;;;;;;6.68;5.45;;;1.50;92.50;;;;;;4988386;28;20235;-88
2021/03/06 00:10:00;;;;;;;8.90;5.03;;;1.40;92.50;;;;;;4993328;28;20211;-90
2021/03/06 00:12:27;;;;;;;5.72;5.00;;;1.50;92.30;;;;;;4987060;28;20232;-90
2021/03/06 00:14:55;;;;;;;5.75;5.00;;;1.50;92.30;;;;;;5001661;28;20177;-89
2021/03/06 00:17:21;;;;;;;8.60;5.35;;;1.40;92.40;;;;;;4995308;28;20246;-88
2021/03/06 00:19:47;;;;;;;9.77;6.03;;;1.40;92.30;;;;;;4996397;28;20201;-90
2021/03/06 00:22:15;;;;;;;6.80;5.55;;;1.40;92.00;;;;;;4990238;28;20212;-89
2021/03/06 00:24:41;;;;;;;6.75;5.72;;;1.40;92.10;;;;;;4992315;28;20212;-89
2021/03/06 00:27:07;;;;;;;8.10;5.80;;;1.40;92.30;;;;;;4985746;28;20260;-89
2021/03/06 00:29:34;;;;;;;10.40;6.95;;;1.30;92.80;;;;;;4980260;28;20255;-89
2021/03/06 00:32:00;;;;;;;6.78;6.07;;;1.20;93.10;;;;;;4979166;28;20201;-87
2021/03/06 00:34:26;;;;;;;7.55;5.53;;;1.10;93.50;;;;;;4979086;28;20536;-87
2021/03/06 00:36:53;;;;;;;10.65;6.40;;;1.10;93.80;;;;;;4978987;28;20601;-87
2021/03/06 00:39:20;;;;;;;5.93;5.18;;;1.10;93.80;;;;;;4984764;28;20218;-86
2021/03/06 00:41:46;;;;;;;6.55;5.13;;;1.00;93.80;;;;;;4982204;28;20201;-88
2021/03/06 00:44:12;;;;;;;7.20;6.35;;;1.00;93.80;;;;;;4988806;28;20185;-86
2021/03/06 00:46:39;;;;;;;7.07;5.82;;;1.10;94.00;;;;;;4988658;28;20228;-87
2021/03/06 00:49:05;;;;;;;7.60;5.93;;;1.00;93.80;;;;;;4982652;28;20233;-88
2021/03/06 00:51:31;;;;;;;6.13;5.53;;;1.00;93.80;;;;;;4996194;28;20205;-87
2021/03/06 00:53:58;;;;;;;6.78;6.10;;;0.90;93.60;;;;;;4991233;28;20213;-88
2021/03/06 00:56:25;;;;;;;7.80;5.53;;;0.90;93.60;;;;;;4990898;28;20235;-88
2021/03/06 00:58:51;;;;;;;7.75;5.18;;;0.90;93.50;;;;;;4980254;28;20233;-89
2021/03/06 01:01:17;;;;;;;7.45;5.47;;;0.80;93.50;;;;;;4995675;28;20212;-89
2021/03/06 01:03:43;;;;;;;6.82;6.00;;;0.90;93.70;;;;;;4999917;28;20193;-87
2021/03/06 01:06:10;;;;;;;7.07;5.60;;;0.90;93.80;;;;;;4991574;28;20591;-89
2021/03/06 01:08:36;;;;;;;6.05;5.38;;;0.90;93.80;;;;;;4994666;28;20208;-89
2021/03/06 01:11:03;;;;;;;8.13;5.47;;;0.90;93.70;;;;;;4996551;28;20235;-89
2021/03/06 01:13:31;;;;;;;10.32;5.90;;;0.90;93.70;;;;;;4994940;28;20201;-89
2021/03/06 01:15:57;;;;;;;11.27;6.00;;;0.90;93.80;;;;;;4997165;28;20213;-88
2021/03/06 01:18:24;;;;;;;7.07;6.38;;;0.80;93.80;;;;;;4993124;28;20229;-88
2021/03/06 01:20:50;;;;;;;7.40;5.82;;;0.80;94.00;;;;;;4997776;28;20312;-88
2021/03/06 01:23:17;;;;;;;6.78;5.50;;;0.80;94.40;;;;;;4994847;28;20204;-89
2021/03/06 01:25:43;;;;;;;7.53;6.10;;;0.90;94.10;;;;;;4982722;28;20204;-88
2021/03/06 01:28:10;;;;;;;6.38;5.78;;;1.00;94.10;;;;;;4987973;28;20205;-89
2021/03/06 01:30:37;;;;;;;6.22;5.45;;;0.90;93.80;;;;;;4987182;28;20216;-89
2021/03/06 01:33:04;;;;;;;7.10;6.15;;;0.80;93.90;;;;;;4990799;28;20208;-89
2021/03/06 01:35:30;;;;;;;6.32;5.55;;;0.70;93.90;;;;;;4989332;28;20197;-89
2021/03/06 01:37:57;;;;;;;9.00;5.75;;;0.60;94.00;;;;;;4987429;28;20216;-88
2021/03/06 01:40:27;;;;;;;8.45;6.47;;;0.60;94.50;;;;;;4987099;28;20208;-88
2021/03/06 01:42:53;;;;;;;6.82;6.13;;;0.50;94.30;;;;;;4988426;28;20214;-88
2021/03/06 01:45:19;;;;;;;7.35;5.75;;;0.50;94.50;;;;;;4987520;28;20261;-88
2021/03/06 01:47:47;;;;;;;8.10;6.60;;;0.50;94.40;;;;;;4986861;28;20585;-88
2021/03/06 01:50:20;;;;;;;10.05;6.25;;;0.50;94.40;;;;;;4988033;28;20208;-88
2021/03/06 01:52:47;;;;;;;7.00;5.88;;;0.40;94.40;;;;;;4987451;28;20201;-88
2021/03/06 01:55:15;;;;;;;8.13;7.10;;;0.40;94.40;;;;;;4984938;28;20227;-88
2021/03/06 01:57:42;;;;;;;6.20;5.60;;;0.40;94.40;;;;;;4997642;28;20251;-87
2021/03/06 02:00:09;;;;;;;8.20;6.57;;;0.40;94.50;;;;;;4992179;28;20192;-88
2021/03/06 02:02:36;;;;;;;8.00;6.85;;;0.30;94.50;;;;;;4993948;28;20260;-88
2021/03/06 02:05:04;;;;;;;7.18;6.05;;;0.40;94.70;;;;;;4983192;28;20209;-87
2021/03/06 02:07:30;;;;;;;7.25;6.03;;;0.40;94.40;;;;;;4987427;28;20232;-88
2021/03/06 02:10:00;;;;;;;9.00;7.43;;;0.30;94.40;;;;;;4986622;28;20209;-87
2021/03/06 02:12:33;;;;;;;6.65;5.80;;;0.30;94.30;;;;;;4979206;28;20292;-87
2021/03/06 02:15:15;;;;;;;6.65;5.93;;;0.30;94.40;;;;;;4984869;28;20219;-87
2021/03/06 02:17:49;;;;;;;7.45;6.55;;;0.50;94.50;;;;;;4996275;28;20196;-87
2021/03/06 02:20:39;;;;;;;7.07;6.10;;;0.50;94.20;;;;;;4986936;28;20212;-87
2021/03/06 02:23:38;;;;;;;7.80;6.80;;;0.40;94.40;;;;;;4977990;28;20683;-88
2021/03/06 02:26:28;;;;;;;7.25;6.00;;;0.40;94.10;;;;;;4981564;28;20228;-87
2021/03/06 02:29:06;;;;;;;5.90;5.30;;;0.40;93.80;;;;;;4986471;28;20232;-87
2021/03/06 02:31:38;;;;;;;8.25;5.80;;;0.40;93.90;;;;;;4992237;28;20259;-87
2021/03/06 02:34:08;;;;;;;7.65;6.90;;;0.30;93.90;;;;;;4989485;28;20240;-87
2021/03/06 02:36:38;;;;;;;10.07;5.70;;;0.30;93.90;;;;;;4983695;28;20227;-88
2021/03/06 02:39:07;;;;;;;8.00;5.70;;;0.30;94.10;;;;;;4985866;28;20228;-89
2021/03/06 02:41:35;;;;;;;6.70;6.00;;;0.30;94.10;;;;;;4986114;28;20211;-88
2021/03/06 02:44:03;;;;;;;7.40;6.38;;;0.30;94.10;;;;;;4982130;28;20204;-88
2021/03/06 02:46:31;;;;;;;7.15;6.30;;;0.20;94.00;;;;;;4979383;28;20239;-88
2021/03/06 02:48:58;;;;;;;8.45;5.20;;;0.20;93.80;;;;;;4976929;28;20272;-89
2021/03/06 02:51:24;;;;;;;6.60;5.57;;;0.10;93.90;;;;;;4977247;28;20201;-89
2021/03/06 02:53:51;;;;;;;8.38;6.53;;;0.20;94.00;;;;;;4975565;28;20680;-89
2021/03/06 02:56:17;;;;;;;7.70;5.93;;;0.10;93.50;;;;;;4976950;28;20232;-89
2021/03/06 02:58:59;;;;;;;9.00;5.55;;;0.10;93.60;;;;;;4977183;28;20305;-89
2021/03/06 03:01:33;;;;;;;7.00;5.90;;;0.10;93.60;;;;;;4977622;28;20196;-89
2021/03/06 03:04:06;;;;;;;7.75;6.10;;;0.10;93.70;;;;;;4977967;28;20266;-89
2021/03/06 03:06:35;;;;;;;8.90;4.97;;;0.10;93.70;;;;;;4978906;28;20220;-89
2021/03/06 03:09:08;;;;;;;6.35;5.68;;;0.00;93.80;;;;;;4978610;28;20217;-89
2021/03/06 03:11:45;;;;;;;6.40;5.80;;;0.00;93.90;;;;;;4983570;28;20208;-89
2021/03/06 03:14:16;;;;;;;6.53;5.32;;;-0.10;93.80;;;;;;4998654;28;20180;-88
2021/03/06 03:16:50;;;;;;;6.43;5.72;;;-0.20;93.30;;;;;;4998010;28;20224;-88
2021/03/06 03:19:28;;;;;;;6.90;6.15;;;-0.20;93.60;;;;;;4983050;28;20224;-89
2021/03/06 03:21:57;;;;;;;10.63;6.13;;;-0.30;93.70;;;;;;4977916;28;20217;-89
2021/03/06 03:24:25;;;;;;;6.85;6.15;;;-0.30;94.00;;;;;;4977507;28;20212;-88
2021/03/06 03:26:53;;;;;;;8.30;6.25;;;-0.30;93.90;;;;;;4978288;28;20615;-89
2021/03/06 03:29:20;;;;;;;7.07;5.88;;;-0.30;93.90;;;;;;4987022;28;20236;-89
2021/03/06 03:31:48;;;;;;;8.25;5.32;;;-0.20;93.90;;;;;;4977121;28;20201;-89
2021/03/06 03:34:17;;;;;;;6.05;5.45;;;-0.20;93.60;;;;;;4978313;28;20201;-88
2021/03/06 03:36:44;;;;;;;6.18;5.57;;;-0.10;93.60;;;;;;4977509;28;20224;-89
2021/03/06 03:39:11;;;;;;;6.43;5.15;;;-0.10;93.30;;;;;;4981308;28;20224;-87
2021/03/06 03:41:38;;;;;;;5.38;4.88;;;-0.10;93.00;;;;;;4997921;28;20185;-87
2021/03/06 03:44:06;;;;;;;5.95;5.32;;;-0.10;92.90;;;;;;4991501;28;20225;-87
2021/03/06 03:46:34;;;;;;;7.20;5.47;;;-0.10;92.80;;;;;;4988335;28;20706;-89
2021/03/06 03:49:02;;;;;;;6.28;5.65;;;0.00;92.50;;;;;;5002287;23;20237;-91
2021/03/06 03:51:28;;;;;;;7.03;5.32;;;0.00;92.00;;;;;;4959148;28;20202;-91
2021/03/06 03:53:56;;;;;;;6.32;5.72;;;0.00;91.90;;;;;;4961731;28;20210;-90
2021/03/06 03:56:22;;;;;;;6.38;5.10;;;0.10;91.80;;;;;;4967507;29;20202;-90
2021/03/06 03:58:49;;;;;;;6.10;5.60;;;0.10;91.70;;;;;;4963388;28;20238;-90
2021/03/06 04:01:16;;;;;;;7.15;6.45;;;0.10;91.60;;;;;;4949494;29;20198;-91
2021/03/06 04:03:42;;;;;;;7.90;6.03;;;0.10;91.60;;;;;;4950992;29;20198;-90
2021/03/06 04:06:08;;;;;;;7.82;5.00;;;0.10;91.60;;;;;;4947072;29;20205;-90
2021/03/06 04:08:35;;;;;;;6.57;5.50;;;0.10;91.50;;;;;;4946202;29;20234;-91
2021/03/06 04:11:02;;;;;;;6.40;5.78;;;0.10;91.30;;;;;;4949952;28;20186;-91
2021/03/06 04:13:29;;;;;;;7.38;6.57;;;0.10;91.20;;;;;;4955836;28;20280;-90
2021/03/06 04:15:55;;;;;;;8.90;5.80;;;0.20;91.20;;;;;;4944123;29;20198;-91
2021/03/06 04:18:21;;;;;;;7.43;6.72;;;0.10;91.10;;;;;;4941961;29;20300;-92
2021/03/06 04:20:47;;;;;;;7.03;6.20;;;0.10;91.00;;;;;;4942495;29;20202;-91
2021/03/06 04:23:14;;;;;;;7.15;5.43;;;0.20;91.10;;;;;;4948689;29;20319;-91
2021/03/06 04:25:40;;;;;;;9.57;6.35;;;0.10;91.00;;;;;;4951187;29;20213;-91
2021/03/06 04:28:07;;;;;;;6.57;5.43;;;0.10;91.00;;;;;;4944032;29;20230;-91
2021/03/06 04:30:33;;;;;;;5.72;5.22;;;0.10;91.00;;;;;;4942566;29;20206;-92
2021/03/06 04:33:08;;;;;;;7.40;6.15;;;0.10;91.00;;;;;;4942254;29;20202;-91
2021/03/06 04:35:34;;;;;;;6.85;5.70;;;0.10;91.10;;;;;;4941339;29;20205;-90
2021/03/06 04:38:00;;;;;;;9.65;5.93;;;0.00;91.20;;;;;;4942339;29;20226;-91
2021/03/06 04:40:31;;;;;;;7.22;6.43;;;0.00;91.20;;;;;;4941020;29;20649;-91
2021/03/06 04:43:00;;;;;;;6.60;5.70;;;0.00;91.00;;;;;;4941923;29;20210;-92
2021/03/06 04:45:27;;;;;;;6.65;5.85;;;0.10;90.90;;;;;;4940330;29;20254;-91
2021/03/06 04:47:55;;;;;;;8.70;6.07;;;0.00;90.70;;;;;;4940942;29;20240;-91
2021/03/06 04:50:22;;;;;;;6.85;5.90;;;0.00;90.50;;;;;;4955057;28;20234;-91
2021/03/06 04:52:48;;;;;;;7.38;6.00;;;0.00;90.50;;;;;;4943034;29;20213;-91
2021/03/06 04:55:15;;;;;;;6.95;4.75;;;-0.10;90.40;;;;;;4940262;29;20281;-91
2021/03/06 04:57:41;;;;;;;6.20;5.60;;;-0.10;90.50;;;;;;4940113;29;20214;-91
2021/03/06 05:00:09;;;;;;;5.88;5.22;;;-0.10;90.60;;;;;;4939304;29;20257;-91
2021/03/06 05:02:36;;;;;;;5.93;5.43;;;-0.10;90.60;;;;;;4946059;29;20216;-91
2021/03/06 05:05:04;;;;;;;5.95;4.97;;;-0.10;90.60;;;;;;4940419;29;20206;-91
2021/03/06 05:07:31;;;;;;;7.38;6.18;;;-0.20;90.60;;;;;;4940763;29;20301;-91
2021/03/06 05:09:57;;;;;;;6.00;5.47;;;-0.30;90.80;;;;;;4940304;29;20217;-91
2021/03/06 05:12:23;;;;;;;6.93;6.22;;;-0.10;90.90;;;;;;4957889;29;20202;-91
2021/03/06 05:14:50;;;;;;;6.30;5.78;;;-0.10;90.80;;;;;;4960599;28;20186;-90
2021/03/06 05:17:16;;;;;;;5.32;4.75;;;-0.10;90.70;;;;;;4947220;29;20553;-91
2021/03/06 05:19:43;;;;;;;6.85;5.60;;;-0.10;90.90;;;;;;4942133;29;20222;-91
2021/03/06 05:22:09;;;;;;;7.32;6.63;;;-0.20;91.20;;;;;;4958821;28;20186;-91
2021/03/06 05:24:36;;;;;;;8.55;7.75;;;-0.20;91.80;;;;;;4954690;29;20218;-90
2021/03/06 05:27:02;;;;;;;6.78;6.05;;;-0.30;92.40;;;;;;4953251;29;20269;-90
2021/03/06 05:29:29;;;;;;;10.15;6.20;;;-0.30;92.80;;;;;;4954634;29;20224;-91
2021/03/06 05:31:55;;;;;;;10.40;7.40;;;-0.40;93.10;;;;;;4944807;29;20202;-91
2021/03/06 05:34:22;;;;;;;7.93;6.13;;;-0.50;93.50;;;;;;4940504;29;20221;-92
2021/03/06 05:36:49;;;;;;;11.25;7.22;;;-0.50;93.90;;;;;;4941863;29;20256;-91
2021/03/06 05:39:15;;;;;;;6.90;5.80;;;-0.70;94.10;;;;;;4940028;29;20678;-91
2021/03/06 05:41:42;;;;;;;8.05;7.18;;;-0.70;94.50;;;;;;4940937;29;20214;-91
2021/03/06 05:44:09;;;;;;;9.23;7.07;;;-0.80;94.60;;;;;;4940239;29;20685;-91
2021/03/06 05:46:37;;;;;;;8.88;7.95;;;-0.80;94.90;;;;;;4951219;28;20190;-89
2021/03/06 05:49:04;;;;;;;7.38;6.43;;;-0.80;95.00;;;;;;4946724;28;20747;-91
2021/03/06 05:51:34;;;;;;;8.10;7.13;;;-0.80;95.00;;;;;;4939801;29;20277;-91
2021/03/06 05:54:05;;;;;;;26.90;19.52;;;-0.80;95.10;;;;;;4939453;29;20206;-92
2021/03/06 05:56:33;;;;;;;10.00;7.32;;;-0.80;95.20;;;;;;4945912;28;20210;-90
2021/03/06 05:59:02;;;;;;;8.25;6.15;;;-0.70;94.90;;;;;;4947686;28;20233;-92
2021/03/06 06:01:29;;;;;;;8.60;6.22;;;-0.80;94.70;;;;;;4940785;29;20689;-91
2021/03/06 06:03:59;;;;;;;7.68;6.63;;;-0.80;94.80;;;;;;4939685;29;20728;-91
2021/03/06 06:06:25;;;;;;;9.07;6.57;;;-0.80;94.90;;;;;;4949523;28;20198;-90
2021/03/06 06:08:52;;;;;;;8.00;6.43;;;-0.80;95.00;;;;;;4940970;29;20253;-90
2021/03/06 06:11:23;;;;;;;12.10;7.03;;;-0.80;95.20;;;;;;4941572;29;20213;-90
2021/03/06 06:13:49;;;;;;;7.30;6.60;;;-0.80;95.20;;;;;;4939634;29;20213;-90
2021/03/06 06:16:19;;;;;;;8.23;7.43;;;-0.70;95.20;;;;;;4940129;29;20210;-91
2021/03/06 06:18:49;;;;;;;8.07;7.25;;;-0.70;95.20;;;;;;4939782;29;20261;-91
2021/03/06 06:21:40;;;;;;;10.07;7.70;;;-0.60;95.10;;;;;;4940753;29;20664;-90
2021/03/06 06:24:11;;;;;;;10.60;6.72;;;-0.60;94.90;;;;;;4942424;29;20213;-90
2021/03/06 06:26:46;;;;;;;7.40;6.60;;;-0.60;95.00;;;;;;4958809;28;20197;-89
2021/03/06 06:29:18;;;;;;;9.90;6.70;;;-0.50;95.00;;;;;;4950426;28;20214;-91
2021/03/06 06:32:07;;;;;;;7.00;6.40;;;-0.40;94.60;;;;;;4942139;29;20202;-90
2021/03/06 06:34:38;;;;;;;7.05;6.43;;;-0.30;94.20;;;;;;4940021;29;20206;-90
2021/03/06 06:37:09;;;;;;;6.82;5.95;;;-0.30;93.60;;;;;;4943363;29;20202;-90
2021/03/06 06:39:40;;;;;;;6.80;6.20;;;-0.30;93.10;;;;;;4939890;29;20226;-91
2021/03/06 06:42:19;;;;;;;;;;;;;;;;;;;;;
2021/03/06 06:44:58;;;;;;;5.50;5.00;;;-0.30;92.20;;;;;;4949968;28;20581;-89
2021/03/06 06:47:28;;;;;;;7.32;6.43;;;-0.20;91.50;;;;;;4940999;29;20198;-90
2021/03/06 06:50:08;;;;;;;7.50;6.25;;;-0.10;91.00;;;;;;4947317;29;20312;-91
2021/03/06 06:52:45;;;;;;;7.90;6.57;;;0.00;90.90;;;;;;4951112;29;20208;-90
2021/03/06 06:55:16;;;;;;;6.03;5.43;;;0.00;90.30;;;;;;4947234;29;20221;-90
2021/03/06 06:58:02;;;;;;;6.18;5.57;;;0.10;90.10;;;;;;4942357;29;20229;-90
2021/03/06 07:00:31;;;;;;;6.45;5.85;;;0.20;89.70;;;;;;4940906;29;20202;-90
2021/03/06 07:02:58;;;;;;;8.13;7.30;;;0.30;89.50;;;;;;4944105;29;20265;-90
2021/03/06 07:05:30;;;;;;;5.95;5.35;;;0.40;88.50;;;;;;4948633;29;20225;-90
2021/03/06 07:08:02;;;;;;;6.53;6.03;;;0.40;88.40;;;;;;4945553;29;20229;-91
2021/03/06 07:10:37;;;;;;;7.30;6.57;;;0.30;88.50;;;;;;4948709;29;20201;-90
2021/03/06 07:13:06;;;;;;;6.13;5.53;;;0.30;88.50;;;;;;4950146;29;20213;-90
2021/03/06 07:15:33;;;;;;;6.68;6.03;;;0.40;88.70;;;;;;4948134;29;20198;-91
2021/03/06 07:18:06;;;;;;;7.90;6.60;;;0.40;88.60;;;;;;4959720;28;20225;-90
2021/03/06 07:20:35;;;;;;;9.13;7.07;;;0.40;88.50;;;;;;4960411;28;20205;-91
2021/03/06 07:23:26;;;;;;;8.30;6.93;;;0.50;88.60;;;;;;4959667;28;20186;-90
2021/03/06 07:26:02;;;;;;;8.80;6.50;;;0.50;88.60;;;;;;4958464;28;20206;-90
2021/03/06 07:28:29;;;;;;;7.45;6.50;;;0.60;88.00;;;;;;4949318;29;20750;-91
2021/03/06 07:31:20;;;;;;;8.35;7.47;;;0.60;87.70;;;;;;4945667;29;20208;-90
2021/03/06 07:33:55;;;;;;;8.57;6.13;;;0.70;87.90;;;;;;4943744;29;20198;-88
2021/03/06 07:36:59;;;;;;;;;;;;;;;;;;;;;
2021/03/06 07:40:02;;;;;;;6.90;6.18;;;0.80;87.50;;;;;;4924194;29;20230;-90
2021/03/06 07:43:00;;;;;;;7.45;5.60;;;0.90;87.40;;;;;;4925601;29;20595;-90
2021/03/06 07:49:50;;;;;;;7.57;6.60;;;0.90;86.60;;;;;;4870117;29;20237;-90
2021/03/06 07:52:47;;;;;;;6.95;5.60;;;1.10;86.80;;;;;;4869577;29;20213;-89
2021/03/06 07:55:15;;;;;;;7.70;5.70;;;1.20;85.90;;;;;;4864888;29;20242;-85
2021/03/06 07:58:06;;;;;;;8.27;6.55;;;1.20;85.70;;;;;;4876226;29;20228;-86
2021/03/06 08:00:44;;;;;;;6.90;6.28;;;1.30;86.30;;;;;;4942123;29;20727;-85
2021/03/06 08:03:43;;;;;;;6.50;5.90;;;1.50;86.30;;;;;;4966367;29;20182;-86
2021/03/06 08:06:29;;;;;;;7.22;5.78;;;1.70;85.20;;;;;;4931861;29;20219;-90
2021/03/06 08:09:15;;;;;;;7.80;5.10;;;1.80;83.30;;;;;;4938837;29;20229;-89
2021/03/06 08:12:11;;;;;;;7.32;5.80;;;2.40;82.40;;;;;;4960648;29;20617;-90
2021/03/06 08:15:07;;;;;;;5.78;5.25;;;2.90;80.00;;;;;;4943194;29;20639;-91
2021/03/06 08:21:03;;;;;;;6.47;5.82;;;3.80;76.60;;;;;;4914661;29;20226;-90
2021/03/06 08:23:50;;;;;;;6.93;5.77;;;4.00;75.50;;;;;;4916170;29;20241;-91
2021/03/06 08:26:51;;;;;;;5.25;4.80;;;4.40;74.60;;;;;;4927043;29;20452;-91
2021/03/06 08:29:57;;;;;;;6.20;5.60;;;4.80;71.70;;;;;;4926413;29;20229;-88
2021/03/06 08:32:42;;;;;;;5.80;5.30;;;5.40;70.60;;;;;;4918980;29;20466;-89
2021/03/06 08:35:52;;;;;;;7.60;5.60;;;6.30;68.60;;;;;;4928825;29;20842;-89
2021/03/06 08:38:43;;;;;;;6.00;5.40;;;7.50;64.80;;;;;;4944221;29;20477;-89
2021/03/06 08:41:26;;;;;;;5.90;5.30;;;8.30;61.00;;;;;;4933330;29;20438;-89
2021/03/06 08:44:37;;;;;;;7.57;5.67;;;8.50;58.70;;;;;;4935189;29;20469;-89
2021/03/06 08:47:28;;;;;;;6.00;5.40;;;9.00;57.10;;;;;;4859018;29;21024;-90
2021/03/06 08:53:15;;;;;;;7.10;6.40;;;8.80;57.20;;;;;;4910226;29;20507;-89
2021/03/06 09:28:33;;;;;;;6.53;5.33;;;11.70;47.90;;;;;;5005854;28;20470;-90
2021/03/06 09:31:12;;;;;;;5.77;5.27;;;12.80;46.90;;;;;;4984128;28;20443;-89
2021/03/06 09:39:31;;;;;;;5.50;5.00;;;14.10;44.30;;;;;;4982479;28;20543;-88
2021/03/06 09:42:06;;;;;;;7.07;5.93;;;14.50;42.90;;;;;;4984697;28;20514;-89
2021/03/06 09:47:39;;;;;;;7.20;6.60;;;16.20;39.80;;;;;;4977343;28;20527;-91
2021/03/06 09:50:18;;;;;;;7.33;5.70;;;14.80;40.50;;;;;;4986916;28;20443;-93
2021/03/06 09:52:55;;;;;;;5.90;5.30;;;15.60;40.70;;;;;;4992189;28;20605;-89
2021/03/06 09:55:49;;;;;;;6.50;6.00;;;16.00;40.70;;;;;;4984380;28;20455;-95
2021/03/06 09:58:28;;;;;;;5.57;5.07;;;15.70;39.30;;;;;;4998031;28;20502;-92
2021/03/06 10:04:39;;;;;;;5.63;5.20;;;17.30;38.00;;;;;;4964667;28;20462;-93
2021/03/06 10:07:42;;;;;;;7.40;5.77;;;17.00;37.30;;;;;;4993284;28;20448;-93
2021/03/06 10:10:26;;;;;;;6.00;5.40;;;16.80;37.30;;;;;;5000331;28;20455;-94
2021/03/06 10:19:10;;;;;;;5.80;5.30;;;18.80;34.60;;;;;;5101034;23;20475;-94
2021/03/06 10:21:49;;;;;;;6.20;5.70;;;17.10;34.40;;;;;;5018388;28;20442;-95
2021/03/06 10:24:28;;;;;;;5.63;5.13;;;14.90;37.30;;;;;;5021174;28;20438;-94
2021/03/06 11:06:50;;;;;;;5.90;5.30;;;18.00;31.50;;;;;;4871850;29;20449;-90
2021/03/06 11:10:15;;;;;;;6.17;5.67;;;19.30;31.50;;;;;;4967013;28;20471;-91
2021/03/06 13:13:41;;;;;;;3.50;3.20;;;13.40;29.70;;;;;;4966325;28;875014;-90
2021/03/06 13:16:30;;;;;;;5.43;3.60;;;13.50;30.30;;;;;;4999572;28;20815;-90
2021/03/06 13:19:19;;;;;;;4.80;3.60;;;13.60;30.40;;;;;;4997854;28;20526;-91
2021/03/06 13:22:18;;;;;;;3.83;3.53;;;14.30;30.90;;;;;;4994374;28;20458;-89
2021/03/06 13:24:51;;;;;;;3.20;2.93;;;14.20;29.70;;;;;;4982245;28;20459;-89
2021/03/06 13:27:28;;;;;;;4.10;3.70;;;14.00;29.10;;;;;;4988462;28;20480;-88
2021/03/06 13:30:16;;;;;;;4.30;3.90;;;14.20;28.90;;;;;;4991994;28;20440;-88
2021/03/06 13:33:11;;;;;;;4.47;4.03;;;13.90;29.30;;;;;;4991174;28;20458;-89
2021/03/06 13:35:38;;;;;;;4.10;3.77;;;15.50;29.30;;;;;;4978727;28;20450;-90
2021/03/06 13:56:05;;;;;;;;;;;;;;;;;;;;;
2021/03/06 14:01:36;;;;;;;3.57;3.37;;;13.50;30.20;;;;;;4821250;29;20519;-91
2021/03/06 14:04:02;;;;;;;3.63;3.30;;;12.70;31.80;;;;;;4820212;29;20516;-83
2021/03/06 14:06:30;;;;;;;3.63;3.33;;;12.30;33.50;;;;;;4881625;29;20444;-83
2021/03/06 14:08:57;;;;;;;4.37;3.90;;;12.80;34.20;;;;;;4972915;28;20546;-82
2021/03/06 14:11:23;;;;;;;4.17;3.77;;;13.30;32.60;;;;;;4989105;28;20455;-83
2021/03/06 14:13:50;;;;;;;4.13;3.83;;;13.20;31.80;;;;;;4984312;28;20428;-82
2021/03/06 14:16:19;;;;;;;3.57;3.27;;;13.10;32.40;;;;;;4987291;28;20450;-82
2021/03/06 14:19:01;;;;;;;4.10;3.80;;;13.90;31.90;;;;;;4988039;28;21164;-82
2021/03/06 14:21:27;;;;;;;4.43;4.03;;;14.80;31.50;;;;;;4987857;28;20517;-83
2021/03/06 14:23:57;;;;;;;5.40;4.90;;;16.00;30.40;;;;;;4996010;28;20511;-83
2021/03/06 14:26:37;;;;;;;4.70;4.20;;;16.10;29.80;;;;;;4990771;28;20938;-82
2021/03/06 14:29:04;;;;;;;4.40;4.00;;;16.10;29.90;;;;;;4985671;28;20559;-82
2021/03/06 14:32:33;;;;;;;;;;;;;;;;;;;;;
2021/03/06 16:06:44;;;;;;;4.13;3.40;;;11.30;33.40;;;;;;4983001;28;20441;-89
2021/03/06 16:09:30;;;;;;;4.40;4.00;;;11.90;32.90;;;;;;5010885;28;20454;-89
2021/03/06 16:12:30;;;;;;;6.13;4.30;;;12.20;32.60;;;;;;5015948;28;20451;-90
2021/03/06 16:15:23;;;;;;;3.97;3.67;;;12.40;32.20;;;;;;4998725;28;20452;-90
2021/03/06 16:18:02;;;;;;;3.97;3.67;;;12.00;31.50;;;;;;5012667;28;20471;-90
2021/03/06 16:21:33;;;;;;;3.60;3.30;;;11.90;32.00;;;;;;5013166;28;20473;-89
2021/03/06 16:24:22;;;;;;;3.77;3.43;;;12.10;32.20;;;;;;5002058;28;20437;-90
2021/03/06 16:27:02;;;;;;;6.83;3.23;;;12.00;32.20;;;;;;4990903;28;20543;-91
2021/03/06 16:30:04;;;;;;;7.43;3.67;;;11.70;32.00;;;;;;5003685;23;20494;-90
2021/03/06 16:35:19;;;;;;;3.70;3.40;;;9.90;34.70;;;;;;5002698;28;20479;-92
2021/03/06 16:38:26;;;;;;;5.70;5.20;;;9.40;36.00;;;;;;5000010;28;20487;-89
2021/03/06 16:41:08;;;;;;;6.03;3.90;;;9.10;36.90;;;;;;4956593;28;20554;-90
2021/03/06 16:43:47;;;;;;;4.10;3.67;;;9.00;36.90;;;;;;4985453;28;20442;-89
2021/03/06 16:49:27;;;;;;;3.20;2.90;;;8.70;37.80;;;;;;4979287;28;20463;-90
2021/03/06 16:51:54;;;;;;;4.07;3.77;;;8.50;37.80;;;;;;5000403;28;20535;-90
2021/03/06 16:54:34;;;;;;;5.90;4.77;;;8.50;38.10;;;;;;4997147;28;20483;-90
2021/03/06 16:57:38;;;;;;;5.10;4.60;;;8.40;38.60;;;;;;4985330;28;20459;-90
2021/03/06 17:00:55;;;;;;;6.33;4.13;;;8.30;38.90;;;;;;4971134;28;20499;-90
2021/03/06 17:06:47;;;;;;;4.63;4.30;;;7.90;39.50;;;;;;4979694;28;20938;-91
2021/03/06 17:09:58;;;;;;;4.63;3.93;;;7.80;40.20;;;;;;4973580;28;20475;-91
2021/03/06 17:12:51;;;;;;;5.57;5.00;;;7.70;40.80;;;;;;4972186;28;20503;-91
2021/03/06 17:15:43;;;;;;;5.53;5.03;;;7.60;41.40;;;;;;4971557;28;20463;-91
2021/03/06 17:21:27;;;;;;;5.77;5.17;;;7.40;42.30;;;;;;4988900;28;20475;-90
2021/03/06 17:24:34;;;;;;;;;;;;;;;;;;;;;
2021/03/06 17:27:37;;;;;;;5.33;4.43;;;7.30;43.20;;;;;;4994458;28;20448;-90
2021/03/06 17:31:02;;;;;;;7.00;5.40;;;7.10;43.30;;;;;;4986186;28;20487;-91
2021/03/06 17:47:32;;;;;;;6.43;5.67;;;6.70;44.40;;;;;;5091419;23;20489;-91
2021/03/06 17:49:58;;;;;;;4.83;4.30;;;6.60;44.50;;;;;;5023782;28;20486;-86
2021/03/06 17:52:26;;;;;;;6.67;5.70;;;6.60;44.40;;;;;;5022067;28;20896;-88
2021/03/06 17:54:56;;;;;;;5.80;5.30;;;6.50;44.70;;;;;;5013926;28;20449;-88
2021/03/06 17:57:24;;;;;;;6.43;5.80;;;6.50;44.80;;;;;;4994039;28;20471;-88
2021/03/06 17:59:51;;;;;;;9.70;6.93;;;6.40;44.90;;;;;;4995606;28;20475;-88
2021/03/06 18:02:17;;;;;;;12.23;6.63;;;6.30;45.00;;;;;;4993115;28;20453;-88
2021/03/06 18:04:45;;;;;;;7.70;6.90;;;6.30;45.00;;;;;;4991810;28;20436;-88
2021/03/06 18:07:12;;;;;;;8.67;7.50;;;6.20;45.10;;;;;;4994408;28;20486;-87
2021/03/06 18:09:38;;;;;;;9.33;7.60;;;6.20;45.30;;;;;;5001157;28;20447;-88
2021/03/06 18:12:06;;;;;;;11.23;9.23;;;6.20;45.30;;;;;;5001057;28;20466;-88
2021/03/06 18:14:33;;;;;;;10.70;9.23;;;6.10;45.60;;;;;;4993886;28;20819;-88
2021/03/06 18:17:02;;;;;;;9.30;8.30;;;6.10;45.80;;;;;;4998387;28;20482;-89
2021/03/06 18:19:29;;;;;;;11.33;9.73;;;6.10;46.10;;;;;;4995139;28;20506;-88
2021/03/06 18:21:58;;;;;;;10.70;9.30;;;6.00;46.00;;;;;;4988838;28;20486;-88
2021/03/06 18:24:25;;;;;;;10.60;9.50;;;5.90;46.00;;;;;;4996879;28;20451;-88
2021/03/06 18:26:54;;;;;;;10.73;8.53;;;5.80;46.10;;;;;;5010935;28;20482;-88
2021/03/06 18:29:21;;;;;;;9.40;8.50;;;5.80;46.10;;;;;;4998432;28;20442;-89
2021/03/06 18:31:48;;;;;;;10.77;9.07;;;5.80;46.10;;;;;;4996562;28;20431;-88
2021/03/06 18:34:15;;;;;;;6.80;6.10;;;5.80;46.10;;;;;;5001767;28;20448;-88
2021/03/06 18:36:44;;;;;;;7.40;6.60;;;5.70;45.90;;;;;;4992363;28;20524;-88
2021/03/06 18:39:13;;;;;;;6.27;5.67;;;5.70;45.40;;;;;;5000891;28;20502;-88
2021/03/06 18:41:41;;;;;;;7.83;5.30;;;5.80;45.40;;;;;;4993643;28;20439;-87
2021/03/06 18:44:08;;;;;;;7.90;5.67;;;5.80;45.50;;;;;;4991713;28;20439;-88
2021/03/06 18:46:36;;;;;;;7.43;5.80;;;5.70;45.60;;;;;;4995619;28;20492;-89
2021/03/06 18:49:13;;;;;;;7.30;6.60;;;5.60;46.10;;;;;;4998159;28;20470;-88
2021/03/06 18:51:40;;;;;;;8.33;7.03;;;5.50;46.20;;;;;;4999003;28;20456;-86
2021/03/06 18:54:07;;;;;;;8.70;6.60;;;5.40;46.40;;;;;;4995271;28;20556;-86
2021/03/06 18:56:35;;;;;;;10.47;6.53;;;5.40;46.60;;;;;;4997935;28;20510;-85
2021/03/06 18:59:01;;;;;;;6.70;6.10;;;5.40;46.80;;;;;;5001104;28;20415;-86
2021/03/06 19:01:28;;;;;;;12.00;6.93;;;5.40;47.20;;;;;;5007412;28;20471;-87
2021/03/06 20:11:14;;;;;;;15.20;11.03;;;4.40;53.20;;;;;;5221385;23;20545;-86
2021/03/06 20:13:41;;;;;;;12.30;10.13;;;4.40;53.60;;;;;;5014183;28;20460;-85
2021/03/06 20:16:07;;;;;;;13.73;11.90;;;4.30;54.80;;;;;;4995696;28;20989;-85
2021/03/06 20:18:33;;;;;;;15.50;10.90;;;4.30;55.10;;;;;;4988045;28;20448;-86
2021/03/06 20:21:00;;;;;;;14.53;11.50;;;4.30;55.20;;;;;;4988581;28;20480;-85
2021/03/06 20:23:26;;;;;;;13.10;10.40;;;4.30;55.00;;;;;;4991435;28;20430;-85
2021/03/06 20:25:52;;;;;;;16.23;10.77;;;4.30;54.70;;;;;;4989000;28;21005;-83
